»·PEaware :: CFLXM CYVR-KMSP

CFLXM :: CYVR-KMSP

FLIGHT INFORMATION

Flight Status: Arrived
Operator: Unknown
More flights by this operator :: More flights under this callsign
Pilot: Lester F. (25731)
Aircraft: Cessna 700 Citation Longitude
(C700)
More flights by this aircraft type
Origin: CYVR Vancouver Intl
Canada
Destination: KMSP Minneapolis-St Paul Intl
United States
More flights between these airports :: More routes between these airports
Route: HE YDC SKAHA GOATE DASBI LOCAN ERVYN BOXAT CFCKK GGW ZEGUS JMS HUHJO DUXHO TTAIL WINDD TIGHE BAINY LUCCY SAUGR GEP ARJAE CHETZ BOBEE
File this flight plan on PilotEdge
Remarks:
Altitude:
(Current/Filed)
43,000ft
Speed:
(Current/Filed)
235kts
Departed: 14-Nov-20 06:29 AM
Arrived: 14-Nov-20 09:32 AM
Distance/Time
Traveled:
1243nm/3:03
Distance/Time
To Go:
Arrived

Flight Plot

Page will automatically refresh every two minutes.

Flight plan parsing failed; only flown route is shown


Map Options




Map Legend


Flown Route
Filed Route
Departure Airport
Arrival Airport
Navaid (VOR, NDB)
Fix

Horizontal Profiles

Position Reports

Time Latitude Longitude Heading Altitude Ground
Speed
14-Nov-20 06:06 49.198401 -123.174695 155 12ft 0kts
14-Nov-20 06:07 49.198401 -123.174695 155 12ft 0kts
14-Nov-20 06:08 49.198401 -123.174695 155 12ft 0kts
14-Nov-20 06:09 49.198401 -123.174695 155 12ft 0kts
14-Nov-20 06:10 49.198401 -123.174695 155 12ft 0kts
14-Nov-20 06:10 49.198401 -123.174695 155 12ft 0kts
14-Nov-20 06:12 49.198401 -123.174695 155 12ft 0kts
14-Nov-20 06:12 49.198401 -123.174695 155 12ft 0kts
14-Nov-20 06:14 49.198401 -123.174695 155 12ft 0kts
14-Nov-20 06:14 49.198401 -123.174695 155 12ft 0kts
14-Nov-20 06:16 49.198401 -123.174695 155 12ft 0kts
14-Nov-20 06:16 49.198805 -123.174943 182 12ft 2kts
14-Nov-20 06:18 49.198968 -123.174835 228 12ft 0kts
14-Nov-20 06:18 49.199213 -123.176011 281 12ft 5kts
14-Nov-20 06:19 49.199728 -123.178602 297 13ft 9kts
14-Nov-20 06:20 49.200273 -123.182925 280 13ft 10kts
14-Nov-20 06:21 49.198671 -123.185581 190 12ft 11kts
14-Nov-20 06:22 49.195365 -123.187167 190 11ft 13kts
14-Nov-20 06:23 49.193481 -123.191177 259 11ft 14kts
14-Nov-20 06:24 49.192727 -123.197300 259 11ft 14kts
14-Nov-20 06:25 49.192020 -123.202987 259 13ft 13kts
14-Nov-20 06:26 49.192009 -123.207707 248 14ft 0kts
14-Nov-20 06:27 49.190916 -123.208445 188 14ft 10kts
14-Nov-20 06:28 49.188447 -123.192678 98 31ft 136kts
14-Nov-20 06:29 49.179892 -123.111543 103 2217ft 261kts
14-Nov-20 06:30 49.149954 -123.011223 109 3879ft 245kts
14-Nov-20 06:31 49.149420 -122.915500 77 5587ft 213kts
14-Nov-20 06:32 49.164362 -122.829293 73 7403ft 215kts
14-Nov-20 06:33 49.179551 -122.736828 72 9387ft 232kts
14-Nov-20 06:34 49.195304 -122.640702 73 11443ft 236kts
14-Nov-20 06:35 49.211318 -122.542570 73 13365ft 241kts
14-Nov-20 06:36 49.227589 -122.442302 73 15171ft 247kts
14-Nov-20 06:37 49.244151 -122.339680 72 16849ft 252kts
14-Nov-20 06:38 49.261320 -122.232575 71 17985ft 278kts
14-Nov-20 06:39 49.279896 -122.115714 71 19640ft 290kts
14-Nov-20 06:40 49.299089 -121.994286 70 21329ft 298kts
14-Nov-20 06:41 49.318635 -121.869668 69 22382ft 305kts
14-Nov-20 06:42 49.338531 -121.742084 69 23623ft 314kts
14-Nov-20 06:43 49.358688 -121.611393 67 24925ft 322kts
14-Nov-20 06:44 49.379511 -121.477164 64 25613ft 330kts
14-Nov-20 06:45 49.386910 -121.334915 88 26627ft 345kts
14-Nov-20 06:46 49.387046 -121.185782 86 27167ft 363kts
14-Nov-20 06:47 49.386670 -121.030988 85 28083ft 370kts
14-Nov-20 06:48 49.385791 -120.873455 83 28974ft 373kts
14-Nov-20 06:49 49.384602 -120.713365 82 29885ft 377kts
14-Nov-20 06:50 49.383247 -120.551421 82 30478ft 382kts
14-Nov-20 06:51 49.380455 -120.386935 82 31402ft 389kts
14-Nov-20 06:52 49.388910 -120.222940 79 32083ft 392kts
14-Nov-20 06:53 49.397090 -120.057098 78 32704ft 395kts
14-Nov-20 06:54 49.404883 -119.888278 78 33403ft 399kts
14-Nov-20 06:55 49.412464 -119.718482 77 34005ft 403kts
14-Nov-20 06:56 49.420156 -119.546968 72 34816ft 401kts
14-Nov-20 06:57 49.430605 -119.373624 75 35926ft 411kts
14-Nov-20 06:58 49.441037 -119.199367 76 36889ft 416kts
14-Nov-20 06:59 49.450710 -119.019762 78 37724ft 425kts
14-Nov-20 07:00 49.459594 -118.839379 79 38526ft 426kts
14-Nov-20 07:01 49.468010 -118.658099 78 39405ft 429kts
14-Nov-20 07:02 49.476183 -118.474267 79 39985ft 432kts
14-Nov-20 07:03 49.484052 -118.289624 81 40633ft 435kts
14-Nov-20 07:04 49.491701 -118.103138 81 40795ft 445kts
14-Nov-20 07:05 49.499172 -117.912645 81 41382ft 448kts
14-Nov-20 07:06 49.506409 -117.721057 80 41934ft 451kts
14-Nov-20 07:07 49.513189 -117.529506 82 42539ft 451kts
14-Nov-20 07:08 49.520329 -117.336750 83 42883ft 454kts
14-Nov-20 07:09 49.527205 -117.141003 82 42944ft 464kts
14-Nov-20 07:10 49.532779 -116.938983 84 42972ft 482kts
14-Nov-20 07:11 49.530043 -116.732142 94 42932ft 494kts
14-Nov-20 07:12 49.520434 -116.520790 93 42956ft 502kts
14-Nov-20 07:13 49.510391 -116.307536 93 42824ft 502kts
14-Nov-20 07:14 49.499795 -116.094199 93 42877ft 503kts
14-Nov-20 07:15 49.488743 -115.881280 91 42839ft 501kts
14-Nov-20 07:16 49.477266 -115.668624 92 42876ft 500kts
14-Nov-20 07:17 49.465408 -115.456617 92 42856ft 500kts
14-Nov-20 07:18 49.453129 -115.243312 92 42832ft 503kts
14-Nov-20 07:19 49.440537 -115.030633 92 42783ft 502kts
14-Nov-20 07:20 49.427460 -114.816838 92 42752ft 504kts
14-Nov-20 07:21 49.413984 -114.603210 92 42773ft 504kts
14-Nov-20 07:22 49.400131 -114.389888 93 42703ft 505kts
14-Nov-20 07:23 49.385848 -114.175685 93 42679ft 505kts
14-Nov-20 07:24 49.371240 -113.962587 94 42679ft 505kts
14-Nov-20 07:25 49.356210 -113.749171 94 42663ft 504kts
14-Nov-20 07:26 49.340879 -113.537126 95 42657ft 501kts
14-Nov-20 07:27 49.325181 -113.325554 95 42676ft 500kts
14-Nov-20 07:28 49.309400 -113.118181 94 42646ft 485kts
14-Nov-20 07:29 49.293657 -112.915999 95 42656ft 472kts
14-Nov-20 07:30 49.277959 -112.718984 94 42680ft 466kts
14-Nov-20 07:31 49.262034 -112.523331 95 42666ft 464kts
14-Nov-20 07:32 49.245789 -112.327916 96 42663ft 464kts
14-Nov-20 07:33 49.229207 -112.132506 97 42655ft 463kts
14-Nov-20 07:34 49.212356 -111.938017 96 42653ft 462kts
14-Nov-20 07:35 49.195211 -111.744019 96 42648ft 461kts
14-Nov-20 07:36 49.177766 -111.550415 96 42646ft 461kts
14-Nov-20 07:37 49.160062 -111.357595 96 42639ft 460kts
14-Nov-20 07:38 49.142014 -111.164597 98 42630ft 459kts
14-Nov-20 07:39 49.123672 -110.972136 98 42628ft 458kts
14-Nov-20 07:40 49.105030 -110.779999 98 42614ft 458kts
14-Nov-20 07:41 49.086141 -110.588794 97 42598ft 457kts
14-Nov-20 07:42 49.066940 -110.397737 97 42591ft 456kts
14-Nov-20 07:43 49.047461 -110.207117 98 42579ft 454kts
14-Nov-20 07:44 49.027795 -110.017904 99 42573ft 453kts
14-Nov-20 07:45 49.007882 -109.829398 100 42564ft 452kts
14-Nov-20 07:46 48.975022 -109.646817 117 42568ft 448kts
14-Nov-20 07:47 48.932809 -109.467997 114 42562ft 453kts
14-Nov-20 07:48 48.889792 -109.286450 112 42549ft 458kts
14-Nov-20 07:49 48.846073 -109.104157 112 42536ft 463kts
14-Nov-20 07:50 48.801592 -108.920535 111 42527ft 467kts
14-Nov-20 07:51 48.756250 -108.734820 111 42505ft 471kts
14-Nov-20 07:52 48.710537 -108.549025 112 42496ft 473kts
14-Nov-20 07:53 48.664262 -108.362373 112 42491ft 475kts
14-Nov-20 07:54 48.617582 -108.175557 112 42486ft 477kts
14-Nov-20 07:55 48.570470 -107.988506 113 42485ft 478kts
14-Nov-20 07:56 48.522961 -107.801420 113 42484ft 479kts
14-Nov-20 07:58 48.475073 -107.614358 113 42484ft 480kts
14-Nov-20 07:59 48.426741 -107.427124 112 42487ft 480kts
14-Nov-20 08:00 48.378209 -107.240604 113 42494ft 475kts
14-Nov-20 08:01 48.330490 -107.058712 113 42477ft 465kts
14-Nov-20 08:02 48.283320 -106.880305 114 42477ft 455kts
14-Nov-20 08:03 48.236906 -106.706086 114 42487ft 449kts
14-Nov-20 08:04 48.202676 -106.526897 95 42520ft 454kts
14-Nov-20 08:05 48.184061 -106.340745 98 42517ft 454kts
14-Nov-20 08:06 48.164094 -106.154218 101 42507ft 456kts
14-Nov-20 08:07 48.143572 -105.965838 101 42510ft 460kts
14-Nov-20 08:08 48.122628 -105.777226 101 42506ft 463kts
14-Nov-20 08:09 48.101082 -105.586882 101 42504ft 466kts
14-Nov-20 08:10 48.079032 -105.395673 102 42501ft 469kts
14-Nov-20 08:11 48.056523 -105.203763 101 42499ft 471kts
14-Nov-20 08:12 48.033555 -105.011036 101 42497ft 473kts
14-Nov-20 08:13 48.010186 -104.817833 102 42503ft 475kts
14-Nov-20 08:14 47.986374 -104.623796 103 42497ft 477kts
14-Nov-20 08:14 47.966222 -104.461919 103 42496ft 478kts
14-Nov-20 08:16 47.937570 -104.234814 102 42493ft 479kts
14-Nov-20 08:16 47.916796 -104.072480 103 42496ft 480kts
14-Nov-20 08:18 47.887491 -103.846645 104 42484ft 474kts
14-Nov-20 08:18 47.866439 -103.686653 103 42489ft 472kts
14-Nov-20 08:19 47.841063 -103.496228 103 42489ft 468kts
14-Nov-20 08:20 47.815599 -103.307571 103 42490ft 466kts
14-Nov-20 08:21 47.789863 -103.119368 104 42488ft 463kts
14-Nov-20 08:22 47.764046 -102.933024 105 42489ft 461kts
14-Nov-20 08:23 47.737956 -102.747055 105 42490ft 460kts
14-Nov-20 08:24 47.711305 -102.561762 111 42487ft 456kts
14-Nov-20 08:25 47.678052 -102.380313 109 42480ft 456kts
14-Nov-20 08:26 47.644643 -102.199876 108 42475ft 456kts
14-Nov-20 08:27 47.610898 -102.018894 108 42472ft 455kts
14-Nov-20 08:28 47.577106 -101.838886 108 42472ft 455kts
14-Nov-20 08:29 47.543111 -101.659134 109 42467ft 454kts
14-Nov-20 08:30 47.508930 -101.479803 109 42466ft 453kts
14-Nov-20 08:31 47.474554 -101.300999 109 42466ft 453kts
14-Nov-20 08:32 47.439979 -101.122795 109 42461ft 453kts
14-Nov-20 08:33 47.405016 -100.944226 110 42457ft 453kts
14-Nov-20 08:34 47.369799 -100.766038 110 42456ft 453kts
14-Nov-20 08:35 47.334320 -100.588174 110 42452ft 453kts
14-Nov-20 08:36 47.298687 -100.411168 110 42449ft 453kts
14-Nov-20 08:37 47.262659 -100.233778 111 42446ft 453kts
14-Nov-20 08:38 47.226366 -100.056686 111 42443ft 453kts
14-Nov-20 08:39 47.189832 -99.879960 111 42439ft 453kts
14-Nov-20 08:40 47.152979 -99.703278 112 42434ft 453kts
14-Nov-20 08:41 47.115815 -99.526655 112 42428ft 454kts
14-Nov-20 08:42 47.078471 -99.350720 113 42421ft 454kts
14-Nov-20 08:43 47.040731 -99.174452 113 42418ft 454kts
14-Nov-20 08:44 47.002620 -98.997961 112 42404ft 455kts
14-Nov-20 08:45 46.964191 -98.821510 112 42393ft 455kts
14-Nov-20 08:46 46.927190 -98.645529 103 42380ft 460kts
14-Nov-20 08:47 46.912801 -98.459023 105 42398ft 460kts
14-Nov-20 08:48 46.895388 -98.273882 108 42390ft 458kts
14-Nov-20 08:49 46.872901 -98.090016 106 42381ft 460kts
14-Nov-20 08:50 46.850085 -97.906504 106 42381ft 460kts
14-Nov-20 08:51 46.826953 -97.723065 105 42379ft 461kts
14-Nov-20 08:52 46.803532 -97.539467 105 42383ft 460kts
14-Nov-20 08:53 46.779890 -97.356139 104 42388ft 460kts
14-Nov-20 08:54 46.756036 -97.173211 104 42395ft 460kts
14-Nov-20 08:55 46.731959 -96.990681 105 42405ft 460kts
14-Nov-20 08:56 46.707587 -96.808104 105 42414ft 460kts
14-Nov-20 08:57 46.677953 -96.628959 121 42425ft 450kts
14-Nov-20 08:58 46.625993 -96.463819 118 42441ft 452kts
14-Nov-20 08:59 46.575896 -96.298018 118 42444ft 453kts
14-Nov-20 09:00 46.525447 -96.131220 118 42444ft 453kts
14-Nov-20 09:01 46.474775 -95.964178 119 42444ft 454kts
14-Nov-20 09:02 46.423891 -95.797236 120 42447ft 455kts
14-Nov-20 09:03 46.372586 -95.629952 119 42448ft 456kts
14-Nov-20 09:04 46.321008 -95.462847 120 42450ft 457kts
14-Nov-20 09:05 46.269133 -95.295941 121 42453ft 457kts
14-Nov-20 09:06 46.216955 -95.129233 120 42459ft 458kts
14-Nov-20 09:07 46.164325 -94.962154 120 42442ft 456kts
14-Nov-20 09:08 46.111518 -94.795816 120 41542ft 465kts
14-Nov-20 09:09 46.057544 -94.626578 121 39412ft 470kts
14-Nov-20 09:10 46.002843 -94.456183 122 37267ft 469kts
14-Nov-20 09:11 45.949445 -94.291129 123 35804ft 450kts
14-Nov-20 09:12 45.896915 -94.128918 124 33618ft 446kts
14-Nov-20 09:13 45.844655 -93.971387 124 31354ft 424kts
14-Nov-20 09:14 45.796010 -93.825889 125 28920ft 392kts
14-Nov-20 09:15 45.743976 -93.698389 150 26776ft 334kts
14-Nov-20 09:16 45.668792 -93.655415 170 24920ft 291kts
14-Nov-20 09:17 45.604445 -93.619697 171 21820ft 220kts
14-Nov-20 09:18 45.549290 -93.589841 170 19765ft 210kts
14-Nov-20 09:19 45.492621 -93.559106 169 19216ft 229kts
14-Nov-20 09:20 45.435330 -93.528180 170 18574ft 228kts
14-Nov-20 09:21 45.365339 -93.490120 167 18469ft 316kts
14-Nov-20 09:22 45.275573 -93.442025 165 16283ft 343kts
14-Nov-20 09:23 45.193041 -93.398342 165 13694ft 299kts
14-Nov-20 09:24 45.122999 -93.350029 150 11253ft 263kts
14-Nov-20 09:25 45.070685 -93.297049 165 8447ft 191kts
14-Nov-20 09:26 45.026782 -93.278615 174 5589ft 152kts
14-Nov-20 09:27 44.986279 -93.267912 174 3487ft 138kts
14-Nov-20 09:28 44.954269 -93.259603 171 2960ft 134kts
14-Nov-20 09:29 44.914590 -93.249219 169 2386ft 136kts
14-Nov-20 09:30 44.879694 -93.240087 172 840ft 97kts
14-Nov-20 09:31 44.875477 -93.240541 186 835ft 4kts
14-Nov-20 09:32 44.872843 -93.239974 170 833ft 19kts
14-Nov-20 09:33 44.870106 -93.238960 110 836ft 1kts
14-Nov-20 09:34 44.871349 -93.234567 48 837ft 16kts
14-Nov-20 09:35 44.874987 -93.230354 46 835ft 18kts

Navigation Log

Ident Type
Flight plan parsing failed, navigation log unavailable